Berta — V2BQ6 — position and weather

sailwx.info

Track history (hours):
 
Tides and Currents Weather Stations Pressure Air Temp Water Temp Dewpoint Dewpoint Depression Visibility Wind Speed Wind Dir Waves Ship Positions

Berta

Last reported at 2017-Nov-05 00:52 UTC. Time now 2017-Nov-18 04:52 UTC.
Position S 05°07' E 010°57'.
Warning: this ship's position is 13 days out of date.

Length 118 m; draft 6.2 m.

Type: Cargo ship. MMSI: 304586000.

Date/timePositionNaut miles runAvg speedWind from/ knotsBaromVisibWave heightAir tempDewpointWater temp
2017-Nov-05 00:52S 05°07' E 010°57'513.2
2017-Nov-05 00:30S 05°11' E 010°60'713.4
2017-Nov-05 00:00S 05°16' E 011°04'713.4
2017-Nov-04 23:30S 05°21' E 011°08'713.2
2017-Nov-04 23:00S 05°27' E 011°12'  
2017-Nov-02 01:43S 05°36' E 011°21'312.3
2017-Nov-02 01:28S 05°33' E 011°19'511.5
2017-Nov-02 01:00S 05°28' E 011°17'611.4
2017-Nov-02 00:30S 05°23' E 011°16'611.5
2017-Nov-02 00:00S 05°17' E 011°16'611.7
2017-Nov-01 23:30S 05°11' E 011°15'611.3
2017-Nov-01 23:00S 05°06' E 011°17'612.3
2017-Nov-01 22:30S 05°03' E 011°22'611.9
2017-Nov-01 22:00S 04°59' E 011°26'510.2
2017-Nov-01 21:30S 04°55' E 011°30'1 1.5
2017-Nov-01 21:00S 04°55' E 011°30'1 1.5
2017-Nov-01 20:30S 04°55' E 011°31'1 2.4
2017-Nov-01 20:00S 04°55' E 011°32'510.6
2017-Nov-01 19:30S 04°52' E 011°36'2 0.1
2017-Oct-31 16:12S 04°54' E 011°35'312.4
2017-Oct-31 15:59S 04°56' E 011°33'613.1
2017-Oct-31 15:30S 05°01' E 011°31'611.5
2017-Oct-31 15:00S 05°04' E 011°26'611.7
2017-Oct-31 14:30S 05°06' E 011°20'611.4
2017-Oct-31 14:00S 05°09' E 011°15'713.7
2017-Oct-31 13:30S 05°16' E 011°15'713.8
2017-Oct-31 13:00S 05°22' E 011°16'713.7
2017-Oct-31 12:30S 05°29' E 011°17'713.7
2017-Oct-31 12:00S 05°35' E 011°20'  
2017-Oct-28 08:06S 05°12' E 010°59'213.6
2017-Oct-28 07:57S 05°13' E 010°60'613.7
2017-Oct-28 07:30S 05°18' E 011°03'713.7
2017-Oct-28 06:59S 05°24' E 011°07'713.4
2017-Oct-28 06:30S 05°30' E 011°11'713.2
2017-Oct-28 06:00S 05°36' E 011°14'  
Track history (hours):
 
Tides and Currents Weather Stations Pressure Air Temp Water Temp Dewpoint Dewpoint Depression Visibility Wind Speed Wind Dir Waves Ship Positions

Berta

Last reported at 2017-Nov-05 00:52 UTC. Time now 2017-Nov-18 04:52 UTC.
Position S 05°07' E 010°57'.
Warning: this ship's position is 13 days out of date.

Length 118 m; draft 6.2 m.

Type: Cargo ship. MMSI: 304586000.

Date/timePositionNaut miles runAvg speedWind from/ knotsBaromVisibWave heightAir tempDewpointWater temp
2017-Nov-05 00:52S 05°07' E 010°57'513.2
2017-Nov-05 00:30S 05°11' E 010°60'713.4
2017-Nov-05 00:00S 05°16' E 011°04'713.4
2017-Nov-04 23:30S 05°21' E 011°08'713.2
2017-Nov-04 23:00S 05°27' E 011°12'  
2017-Nov-02 01:43S 05°36' E 011°21'312.3
2017-Nov-02 01:28S 05°33' E 011°19'511.5
2017-Nov-02 01:00S 05°28' E 011°17'611.4
2017-Nov-02 00:30S 05°23' E 011°16'611.5
2017-Nov-02 00:00S 05°17' E 011°16'611.7
2017-Nov-01 23:30S 05°11' E 011°15'611.3
2017-Nov-01 23:00S 05°06' E 011°17'612.3
2017-Nov-01 22:30S 05°03' E 011°22'611.9
2017-Nov-01 22:00S 04°59' E 011°26'510.2
2017-Nov-01 21:30S 04°55' E 011°30'1 1.5
2017-Nov-01 21:00S 04°55' E 011°30'1 1.5
2017-Nov-01 20:30S 04°55' E 011°31'1 2.4
2017-Nov-01 20:00S 04°55' E 011°32'510.6
2017-Nov-01 19:30S 04°52' E 011°36'2 0.1
2017-Oct-31 16:12S 04°54' E 011°35'312.4
2017-Oct-31 15:59S 04°56' E 011°33'613.1
2017-Oct-31 15:30S 05°01' E 011°31'611.5
2017-Oct-31 15:00S 05°04' E 011°26'611.7
2017-Oct-31 14:30S 05°06' E 011°20'611.4
2017-Oct-31 14:00S 05°09' E 011°15'713.7
2017-Oct-31 13:30S 05°16' E 011°15'713.8
2017-Oct-31 13:00S 05°22' E 011°16'713.7
2017-Oct-31 12:30S 05°29' E 011°17'713.7
2017-Oct-31 12:00S 05°35' E 011°20'  
2017-Oct-28 08:06S 05°12' E 010°59'213.6
2017-Oct-28 07:57S 05°13' E 010°60'613.7
2017-Oct-28 07:30S 05°18' E 011°03'713.7
2017-Oct-28 06:59S 05°24' E 011°07'713.4
2017-Oct-28 06:30S 05°30' E 011°11'713.2
2017-Oct-28 06:00S 05°36' E 011°14'  

Dump ship's entire track history